Time;durP1;ratioP1;P1;durP2;ratioP2;P2;SDS_P1;SDS_P2;PMS_P1;PMS_P2;Temp;Humidity;BMP_temperature;BMP_pressure;BME280_temperature;BME280_humidity;BME280_pressure;Samples;Min_cycle;Max_cycle;Signal;HPM_P1;HPM_P2
2022/11/04 00:05:11;;;;;;;1.08;0.30;;;;;;;19.45;45.21;100125.59;16130831;19;130061;-34
2022/11/04 00:33:27;;;;;;;0.17;0.17;;;;;;;19.35;45.16;100168.00;16132301;19;130886;-34
2022/11/04 00:38:48;;;;;;;0.88;0.30;;;;;;;19.35;45.50;100161.63;16135029;19;130072;-34
2022/11/04 00:44:10;;;;;;;0.40;0.20;;;;;;;19.34;45.27;100159.97;16132327;19;129796;-34
2022/11/04 00:49:32;;;;;;;0.95;0.40;;;;;;;19.32;45.20;100171.31;16129778;19;129380;-33
2022/11/04 00:54:53;;;;;;;1.85;0.30;;;;;;;19.32;45.47;100181.56;16129583;19;129235;-33
2022/11/04 01:00:15;;;;;;;0.68;0.30;;;;;;;19.30;45.30;100192.94;16131813;19;129835;-34
2022/11/04 01:05:37;;;;;;;1.95;0.30;;;;;;;19.28;45.49;100197.94;16129586;19;129756;-34
2022/11/04 01:11:07;;;;;;;1.40;0.30;;;;;;;19.29;45.31;100207.06;16126737;19;130590;-34
2022/11/04 01:16:29;;;;;;;0.40;0.30;;;;;;;19.26;45.23;100208.44;16129398;19;129406;-33
2022/11/04 01:21:51;;;;;;;0.65;0.20;;;;;;;19.26;45.43;100200.13;16128157;19;129728;-33
2022/11/04 01:27:13;;;;;;;0.28;0.20;;;;;;;19.24;45.46;100210.66;16127779;19;129546;-34
2022/11/04 01:32:35;;;;;;;0.50;0.30;;;;;;;19.22;45.19;100212.84;16129998;19;129459;-34
2022/11/04 01:37:57;;;;;;;0.10;0.10;;;;;;;19.21;45.28;100203.72;16129649;19;130087;-34
2022/11/04 01:43:21;;;;;;;0.73;0.30;;;;;;;19.20;45.29;100202.00;16128676;19;131323;-33
2022/11/04 01:48:42;;;;;;;0.43;0.20;;;;;;;19.20;45.58;100195.63;16135938;19;129243;-42
2022/11/04 01:54:07;;;;;;;0.38;0.20;;;;;;;19.19;45.15;100192.00;16124438;19;131285;-43
2022/11/04 01:59:33;;;;;;;0.20;0.10;;;;;;;19.20;45.40;100192.88;16131098;19;129538;-42
2022/11/04 02:04:55;;;;;;;0.32;0.15;;;;;;;19.19;45.28;100205.88;16133126;19;129634;-42
2022/11/04 02:10:20;;;;;;;0.40;0.20;;;;;;;19.19;45.21;100197.56;16125734;19;130126;-43
2022/11/04 02:15:59;;;;;;;0.55;0.20;;;;;;;19.20;45.30;100203.97;16128094;19;130988;-43
2022/11/04 02:21:44;;;;;;;0.10;0.10;;;;;;;19.17;45.27;100194.22;16125106;19;129639;-44
2022/11/04 02:27:20;;;;;;;0.20;0.20;;;;;;;19.17;45.28;100196.16;16114309;19;129719;-42
2022/11/04 02:33:02;;;;;;;0.70;0.10;;;;;;;19.16;45.29;100197.25;16116235;19;128946;-43
2022/11/04 02:38:49;;;;;;;0.35;0.20;;;;;;;19.16;45.36;100197.25;16115249;19;133850;-42
2022/11/04 02:44:23;;;;;;;0.93;0.30;;;;;;;19.14;45.46;100193.91;16115772;19;130096;-43
2022/11/04 02:50:01;;;;;;;0.30;0.15;;;;;;;19.14;45.31;100197.50;16116382;19;129354;-42
2022/11/04 02:55:37;;;;;;;0.60;0.10;;;;;;;19.12;45.41;100196.97;16116704;19;129386;-43
2022/11/04 03:01:01;;;;;;;0.10;0.10;;;;;;;19.10;45.07;100196.41;16117407;19;129662;-43
2022/11/04 03:06:25;;;;;;;0.20;0.10;;;;;;;19.10;45.36;100198.31;16123711;19;130202;-42
2022/11/04 03:11:52;;;;;;;0.40;0.20;;;;;;;19.10;45.53;100195.53;16124430;19;129514;-42
2022/11/04 03:17:22;;;;;;;1.05;0.20;;;;;;;19.08;45.33;100188.31;16122092;19;131315;-43
2022/11/04 03:22:43;;;;;;;0.70;0.20;;;;;;;19.06;45.46;100187.78;16124745;19;129321;-42
2022/11/04 03:28:23;;;;;;;0.38;0.10;;;;;;;19.08;45.30;100187.50;16122998;19;129224;-43
2022/11/04 03:33:49;;;;;;;0.73;0.10;;;;;;;19.06;45.27;100184.16;16125173;19;129290;-42
2022/11/04 03:39:10;;;;;;;0.22;0.15;;;;;;;19.04;45.44;100195.53;16136694;19;129546;-43
2022/11/04 03:44:32;;;;;;;0.50;0.10;;;;;;;19.04;45.35;100195.53;16139514;19;129572;-42
2022/11/04 03:50:01;;;;;;;0.10;0.10;;;;;;;19.05;45.39;100204.66;16140219;19;129486;-43
2022/11/04 03:55:50;;;;;;;0.30;0.20;;;;;;;19.04;45.48;100206.63;16135040;19;130766;-42
2022/11/04 04:01:54;;;;;;;0.20;0.10;;;;;;;19.03;45.29;100204.94;16132119;19;129518;-43
2022/11/04 04:07:30;;;;;;;1.33;0.40;;;;;;;19.03;45.63;100204.09;16131610;19;130036;-42
2022/11/04 04:12:57;;;;;;;0.30;0.10;;;;;;;19.01;45.38;100204.38;16134283;19;130045;-42
2022/11/04 04:18:26;;;;;;;0.55;0.20;;;;;;;19.01;45.26;100198.81;16136160;19;131217;-43
2022/11/04 04:29:31;;;;;;;0.52;0.10;;;;;;;18.99;45.46;100203.78;16132858;19;129884;-42
2022/11/04 04:35:40;;;;;;;0.63;0.15;;;;;;;18.99;45.13;100219.59;16132209;19;129839;-43
2022/11/04 04:46:15;;;;;;;0.47;0.10;;;;;;;18.97;45.30;100211.53;16130026;19;130706;-43
2022/11/04 04:51:43;;;;;;;0.95;0.20;;;;;;;18.97;45.29;100217.09;16130940;19;129833;-42
2022/11/04 04:57:05;;;;;;;0.80;0.20;;;;;;;18.95;45.44;100216.53;16128835;19;129327;-43
2022/11/04 05:02:26;;;;;;;1.23;0.28;;;;;;;18.95;45.27;100224.00;16131143;19;129973;-42
2022/11/04 05:07:48;;;;;;;0.30;0.20;;;;;;;18.94;45.21;100231.50;16128981;19;129630;-43
2022/11/04 05:13:28;;;;;;;1.08;0.20;;;;;;;18.96;45.19;100231.22;16127772;19;129554;-42
2022/11/04 05:18:51;;;;;;;0.82;0.17;;;;;;;18.93;45.19;100238.13;16127795;19;129345;-42
2022/11/04 05:24:13;;;;;;;1.27;0.28;;;;;;;18.93;45.07;100235.38;16127059;19;129811;-43
2022/11/04 05:29:34;;;;;;;0.15;0.00;;;;;;;18.91;45.38;100245.88;16126941;19;129902;-43
2022/11/04 05:34:56;;;;;;;0.50;0.20;;;;;;;18.91;45.49;100240.34;16125182;19;129589;-42
2022/11/04 05:40:18;;;;;;;0.85;0.10;;;;;;;18.91;45.08;100248.66;16125579;19;129475;-43
2022/11/04 05:45:40;;;;;;;0.20;0.15;;;;;;;18.91;45.53;100256.97;16127700;19;129624;-43
2022/11/04 05:51:19;;;;;;;0.70;0.20;;;;;;;18.89;45.31;100257.22;16124590;19;129399;-42
2022/11/04 05:56:40;;;;;;;0.30;0.10;;;;;;;18.88;45.51;100260.25;16126483;19;129489;-42
2022/11/04 06:02:02;;;;;;;0.52;0.20;;;;;;;18.88;45.55;100271.34;16127125;19;130207;-43
2022/11/04 06:07:24;;;;;;;0.50;0.20;;;;;;;18.93;45.40;100288.03;16124980;19;130770;-42
2022/11/04 06:12:46;;;;;;;0.28;0.13;;;;;;;19.02;44.78;100303.06;16130676;19;129515;-43
2022/11/04 06:18:08;;;;;;;0.10;0.10;;;;;;;19.16;44.74;100295.13;16123624;19;130297;-43
2022/11/04 06:23:30;;;;;;;0.30;0.10;;;;;;;19.29;44.98;100307.75;16122369;19;129332;-43
2022/11/04 06:28:52;;;;;;;0.70;0.10;;;;;;;19.37;44.88;100301.69;16125479;19;129519;-42
2022/11/04 06:34:14;;;;;;;0.17;0.10;;;;;;;19.42;44.62;100306.44;16124160;19;129727;-43
2022/11/04 06:39:36;;;;;;;0.85;0.22;;;;;;;19.43;44.65;100308.13;16124136;19;129633;-43
2022/11/04 06:44:58;;;;;;;0.75;0.10;;;;;;;19.42;44.71;100320.31;16124973;19;129722;-43
2022/11/04 06:50:19;;;;;;;0.57;0.10;;;;;;;19.41;44.80;100324.19;16121003;19;129415;-42
2022/11/04 06:55:41;;;;;;;1.02;0.10;;;;;;;19.39;44.63;100326.38;16124746;19;129349;-42
2022/11/04 07:01:03;;;;;;;0.75;0.20;;;;;;;19.38;44.88;100336.66;16123398;19;129583;-45
2022/11/04 07:06:34;;;;;;;1.95;0.10;;;;;;;19.38;44.87;100344.97;16120294;19;129378;-42
2022/11/04 07:12:00;;;;;;;1.02;0.20;;;;;;;19.37;44.95;100343.31;16134541;19;129783;-42
2022/11/04 07:17:22;;;;;;;1.13;0.20;;;;;;;19.38;44.53;100344.97;16137701;19;130102;-43
2022/11/04 07:22:43;;;;;;;0.63;0.20;;;;;;;19.37;44.78;100351.63;16138862;19;129341;-42
2022/11/04 07:28:05;;;;;;;0.68;0.10;;;;;;;19.36;44.83;100361.03;16136937;19;129546;-42
2022/11/04 07:33:28;;;;;;;0.55;0.28;;;;;;;19.35;44.62;100375.19;16137553;19;128989;-43
2022/11/04 07:38:49;;;;;;;1.00;0.30;;;;;;;19.31;44.64;100377.66;16137379;19;129431;-43
2022/11/04 07:44:12;;;;;;;1.05;0.20;;;;;;;19.27;44.67;100376.50;16135564;19;129365;-42
2022/11/04 07:49:33;;;;;;;0.85;0.20;;;;;;;19.25;45.14;100383.44;16132900;19;129008;-42
2022/11/04 07:54:55;;;;;;;0.57;0.20;;;;;;;19.21;45.01;100394.19;16133934;19;129507;-43
2022/11/04 08:00:17;;;;;;;1.27;0.20;;;;;;;19.18;45.25;100400.25;16132733;19;130351;-43
2022/11/04 08:05:39;;;;;;;3.03;0.40;;;;;;;19.15;44.85;100400.78;16133933;19;132737;-42
2022/11/04 08:11:13;;;;;;;0.90;0.20;;;;;;;19.12;44.91;100410.47;16134299;19;129245;-43
2022/11/04 08:16:38;;;;;;;2.38;0.20;;;;;;;19.11;44.81;100421.78;16131446;19;129357;-43
2022/11/04 08:21:59;;;;;;;1.05;0.30;;;;;;;19.07;45.42;100413.16;16134502;19;130323;-43
2022/11/04 08:27:22;;;;;;;2.05;0.20;;;;;;;19.06;45.25;100419.81;16139090;19;129222;-43
2022/11/04 08:32:43;;;;;;;1.65;0.30;;;;;;;19.06;45.52;100430.91;16137015;19;129859;-43
2022/11/04 08:38:05;;;;;;;0.93;0.20;;;;;;;19.02;45.47;100441.69;16139252;19;129729;-43
2022/11/04 08:43:27;;;;;;;1.17;0.15;;;;;;;19.03;45.32;100453.59;16135926;19;129364;-43
2022/11/04 08:48:49;;;;;;;1.05;0.20;;;;;;;19.01;45.42;100462.19;16134346;19;129999;-43
2022/11/04 08:54:11;;;;;;;0.55;0.25;;;;;;;19.01;45.06;100456.63;16129777;19;129370;-43
2022/11/04 08:59:33;;;;;;;1.13;0.10;;;;;;;19.02;45.56;100461.09;16130370;19;129758;-43
2022/11/04 09:04:54;;;;;;;0.52;0.20;;;;;;;19.03;45.53;100465.53;16130871;19;129208;-43
2022/11/04 09:10:16;;;;;;;1.20;0.10;;;;;;;19.06;45.10;100476.13;16126208;19;129020;-43
2022/11/04 09:15:38;;;;;;;0.40;0.20;;;;;;;19.07;45.31;100488.03;16129903;19;129526;-44
2022/11/04 09:21:01;;;;;;;0.20;0.10;;;;;;;19.06;45.47;100491.88;16130798;19;129840;-43
2022/11/04 09:26:24;;;;;;;0.75;0.13;;;;;;;19.04;45.09;100499.63;16128969;19;130328;-43
2022/11/04 09:31:46;;;;;;;1.80;0.10;;;;;;;19.04;45.24;100500.47;16126417;19;129363;-43
2022/11/04 09:37:08;;;;;;;0.30;0.20;;;;;;;19.04;45.08;100506.03;16131445;19;129163;-43
2022/11/04 09:42:32;;;;;;;0.25;0.20;;;;;;;19.05;45.54;100523.47;16127114;19;128881;-43
2022/11/04 09:48:00;;;;;;;1.10;0.20;;;;;;;19.03;45.55;100520.97;16127154;19;130389;-43
2022/11/04 09:53:46;;;;;;;0.52;0.20;;;;;;;19.03;45.20;100539.53;16126137;19;129297;-43
2022/11/04 09:59:12;;;;;;;0.57;0.10;;;;;;;19.00;45.40;100552.00;16127543;19;129674;-43
2022/11/04 10:04:52;;;;;;;0.65;0.20;;;;;;;19.00;45.34;100557.53;16126638;19;129491;-43
2022/11/04 10:10:36;;;;;;;0.60;0.20;;;;;;;18.99;45.11;100571.66;16127207;19;130170;-47
2022/11/04 10:16:00;;;;;;;0.70;0.20;;;;;;;18.95;45.65;100574.13;16126318;19;129668;-43
2022/11/04 10:21:22;;;;;;;0.80;0.20;;;;;;;18.95;45.65;100585.22;16126631;19;129276;-42
2022/11/04 10:26:49;;;;;;;1.13;0.22;;;;;;;18.95;45.21;100585.22;16128100;19;131808;-43
2022/11/04 10:32:40;;;;;;;0.60;0.20;;;;;;;18.97;45.08;100588.53;16125467;19;129690;-43
2022/11/04 10:38:31;;;;;;;1.40;0.40;;;;;;;18.95;45.53;100585.22;16130078;19;129237;-43
2022/11/04 10:44:02;;;;;;;0.45;0.30;;;;;;;18.96;45.44;100592.41;16124643;19;129126;-43
2022/11/04 10:49:38;;;;;;;0.50;0.20;;;;;;;18.97;45.23;100588.53;16123571;19;130113;-43
2022/11/04 10:54:59;;;;;;;0.77;0.20;;;;;;;18.96;45.59;100597.13;16125386;19;129766;-42
2022/11/04 11:00:35;;;;;;;0.47;0.20;;;;;;;18.98;45.27;100606.03;16127257;19;129561;-43
2022/11/04 11:06:14;;;;;;;1.20;0.33;;;;;;;18.98;45.52;100617.94;16123289;19;129629;-44
2022/11/04 11:11:37;;;;;;;0.30;0.20;;;;;;;18.97;45.14;100627.34;16121515;19;129933;-43
2022/11/04 11:17:19;;;;;;;1.08;0.30;;;;;;;18.99;45.48;100627.94;16122858;19;130440;-43
2022/11/04 11:22:43;;;;;;;1.20;0.25;;;;;;;18.98;45.06;100631.78;16122825;19;129842;-43
2022/11/04 11:28:09;;;;;;;0.73;0.38;;;;;;;18.98;45.54;100626.25;16118168;19;130806;-43
2022/11/04 11:33:36;;;;;;;1.38;0.60;;;;;;;18.99;45.26;100635.41;16119604;19;130003;-43
2022/11/04 11:38:59;;;;;;;5.47;1.40;;;;;;;18.98;45.37;100628.19;16120668;19;129932;-43
2022/11/04 11:44:24;;;;;;;4.40;1.85;;;;;;;18.95;45.21;100635.09;16120768;19;130537;-43
2022/11/04 11:50:02;;;;;;;4.90;1.58;;;;;;;18.97;44.61;100641.19;16120747;19;129361;-43
2022/11/04 11:55:31;;;;;;;7.57;2.22;;;;;;;18.95;44.85;100635.09;16123493;19;129780;-43
2022/11/04 12:00:55;;;;;;;6.70;2.45;;;;;;;18.96;44.50;100658.94;16134669;19;129341;-43
2022/11/04 12:06:43;;;;;;;7.73;2.10;;;;;;;18.98;44.83;100670.59;16132668;19;129791;-44
2022/11/04 12:12:54;;;;;;;7.43;3.07;;;;;;;18.97;44.46;100674.47;16131983;19;130309;-43
2022/11/04 12:18:28;;;;;;;12.15;4.45;;;;;;;18.95;44.34;100673.06;16129406;19;129580;-43
2022/11/04 12:24:00;;;;;;;10.52;4.60;;;;;;;18.94;44.79;100683.31;16131747;19;129838;-43
2022/11/04 12:30:09;;;;;;;15.00;5.28;;;;;;;18.91;44.62;100683.81;16132403;19;129581;-42
2022/11/04 12:35:55;;;;;;;19.33;5.82;;;;;;;18.93;44.39;100692.72;16121585;19;130234;-43
2022/11/04 12:41:34;;;;;;;13.40;5.97;;;;;;;18.90;44.67;100704.31;16122878;19;130315;-43
2022/11/04 12:47:35;;;;;;;15.30;5.30;;;;;;;18.90;44.17;100698.78;16122021;19;129541;-43
2022/11/04 12:53:33;;;;;;;15.57;5.53;;;;;;;18.88;44.25;100707.34;16125118;19;129590;-43
2022/11/04 12:59:13;;;;;;;11.85;5.40;;;;;;;18.88;44.25;100700.94;16120297;19;129561;-43
2022/11/04 13:04:40;;;;;;;14.65;4.85;;;;;;;18.88;44.55;100714.81;16120429;19;129796;-43
2022/11/04 13:10:36;;;;;;;13.13;4.95;;;;;;;18.88;44.42;100725.91;16124067;19;129518;-46
2022/11/04 13:16:03;;;;;;;11.10;4.78;;;;;;;18.88;43.97;100736.97;16128313;19;129437;-43
2022/11/04 13:21:32;;;;;;;10.30;4.15;;;;;;;18.86;44.35;100740.03;16129607;19;129531;-43
2022/11/04 13:26:54;;;;;;;13.77;4.70;;;;;;;18.82;43.86;100746.31;16122482;19;129560;-43
2022/11/04 13:32:34;;;;;;;15.35;4.60;;;;;;;18.78;43.36;100762.59;16119743;19;129578;-43
2022/11/04 13:38:04;;;;;;;15.50;4.35;;;;;;;18.70;42.40;100769.41;16125811;19;130795;-43
2022/11/04 13:43:37;;;;;;;17.08;4.53;;;;;;;18.63;42.54;100771.50;16123200;19;129465;-43
2022/11/04 13:49:04;;;;;;;10.02;3.42;;;;;;;18.62;42.51;100783.66;16126832;19;130467;-43
2022/11/04 13:54:30;;;;;;;11.20;3.47;;;;;;;18.61;42.25;100788.38;16120890;19;129585;-43
2022/11/04 14:00:10;;;;;;;10.70;3.00;;;;;;;18.63;42.17;100799.19;16126239;19;130290;-43
2022/11/04 14:05:33;;;;;;;10.55;2.83;;;;;;;18.60;42.49;100810.78;16124189;19;129788;-44
2022/11/04 14:10:55;;;;;;;8.05;3.08;;;;;;;18.61;42.22;100834.63;16123929;19;129510;-46
2022/11/04 14:16:23;;;;;;;12.85;3.58;;;;;;;18.60;42.32;100832.94;16124600;19;129437;-43
2022/11/04 14:22:06;;;;;;;14.10;2.60;;;;;;;18.59;42.56;100847.88;16124719;19;129448;-43
2022/11/04 14:27:39;;;;;;;10.60;2.63;;;;;;;18.58;42.84;100857.31;16124454;19;129515;-43
2022/11/04 14:33:21;;;;;;;9.00;2.25;;;;;;;18.58;42.84;100860.91;16125102;19;129758;-43
2022/11/04 14:38:50;;;;;;;7.53;1.85;;;;;;;18.59;42.73;100870.03;16126291;19;129487;-43
2022/11/04 14:44:20;;;;;;;6.47;2.45;;;;;;;18.62;43.09;100888.94;16124250;19;129939;-43
2022/11/04 14:49:44;;;;;;;5.50;2.05;;;;;;;18.63;42.83;100881.50;16125878;19;129843;-43
2022/11/04 14:55:31;;;;;;;4.43;1.52;;;;;;;18.65;43.10;100895.91;16125461;19;129631;-42
2022/11/04 15:00:58;;;;;;;4.50;1.45;;;;;;;18.65;42.82;100902.31;16125957;19;129448;-43
2022/11/04 15:06:27;;;;;;;8.35;1.60;;;;;;;18.66;43.17;100898.47;16126793;19;129175;-43
2022/11/04 15:12:53;;;;;;;6.18;1.48;;;;;;;18.63;42.75;100921.13;16124752;19;129247;-43
2022/11/04 15:17:49;;;;;;;3.85;1.42;;;;;;;18.63;42.94;100937.75;16121273;19;130798;-44
2022/11/04 15:23:15;;;;;;;4.13;1.27;;;;;;;18.63;43.18;100943.28;16120358;19;129551;-45
2022/11/04 15:28:45;;;;;;;;;;;;;;;18.59;43.15;100947.63;16126885;19;129607;-44
2022/11/04 15:34:11;;;;;;;5.72;1.20;;;;;;;18.59;42.75;100958.69;16139861;19;130090;-43
2022/11/04 15:39:42;;;;;;;6.80;1.27;;;;;;;18.57;43.00;100958.97;16138362;19;129533;-43
2022/11/04 15:45:41;;;;;;;6.00;1.00;;;;;;;18.56;42.79;100964.75;16139039;19;130288;-44
2022/11/04 15:51:18;;;;;;;4.55;1.23;;;;;;;18.57;43.26;100970.03;16138358;19;129533;-43
2022/11/04 15:56:49;;;;;;;5.50;1.00;;;;;;;18.59;42.70;100980.88;16138807;19;129655;-44
2022/11/04 16:02:23;;;;;;;3.38;1.00;;;;;;;18.60;42.96;100983.41;16135922;19;130587;-43
2022/11/04 16:07:49;;;;;;;5.88;1.15;;;;;;;18.58;43.16;100981.97;16134920;19;130023;-44
2022/11/04 16:13:13;;;;;;;6.78;1.05;;;;;;;18.63;43.07;100987.63;16135185;19;130237;-43
2022/11/04 16:18:38;;;;;;;12.13;1.38;;;;;;;18.66;43.25;101001.00;16139465;19;130695;-43
2022/11/04 16:24:16;;;;;;;7.13;1.20;;;;;;;18.67;43.18;101005.44;16133974;19;130402;-43
2022/11/04 16:29:38;;;;;;;6.05;1.15;;;;;;;18.63;43.05;101007.00;16132127;19;129605;-43
2022/11/04 16:35:15;;;;;;;9.77;1.65;;;;;;;18.65;43.46;101024.25;16130446;19;131041;-43
2022/11/04 16:40:37;;;;;;;9.18;1.10;;;;;;;18.62;43.44;101030.25;16131324;19;129816;-43
2022/11/04 16:45:58;;;;;;;3.17;0.77;;;;;;;18.61;43.67;101031.34;16131356;19;130037;-43
2022/11/04 16:51:22;;;;;;;9.25;0.98;;;;;;;18.60;43.72;101033.28;16131415;19;129711;-43
2022/11/04 16:56:44;;;;;;;17.88;1.52;;;;;;;18.66;43.58;101037.00;16130467;19;129087;-44
2022/11/04 17:02:22;;;;;;;17.05;1.58;;;;;;;18.80;43.94;101050.59;16122492;19;130501;-43
2022/11/04 17:07:44;;;;;;;9.20;0.85;;;;;;;19.00;43.68;101056.56;16128682;19;134825;-44
2022/11/04 17:13:15;;;;;;;14.65;1.02;;;;;;;19.44;43.27;101069.94;16134737;19;129255;-46
2022/11/04 17:18:37;;;;;;;7.00;0.80;;;;;;;19.85;42.79;101075.38;16130268;19;129851;-44
2022/11/04 17:23:58;;;;;;;13.50;1.40;;;;;;;20.09;42.29;101086.38;16127390;19;129041;-43
2022/11/04 17:29:20;;;;;;;12.48;1.08;;;;;;;20.21;42.41;101095.44;16127021;19;129533;-43
2022/11/04 17:34:42;;;;;;;26.33;1.58;;;;;;;20.27;42.39;101102.78;16132663;19;129971;-43
2022/11/04 17:40:05;;;;;;;9.70;0.82;;;;;;;20.27;42.00;101113.91;16130354;19;130348;-43
2022/11/04 17:45:27;;;;;;;9.55;1.23;;;;;;;20.27;42.22;101113.91;16126589;19;129397;-44
2022/11/04 17:50:49;;;;;;;7.25;1.10;;;;;;;20.24;42.61;101133.03;16128190;19;130335;-43
2022/11/04 17:56:15;;;;;;;15.15;1.33;;;;;;;20.22;42.74;101146.31;16124103;19;129453;-43
2022/11/04 18:01:38;;;;;;;8.15;0.90;;;;;;;20.18;42.48;101145.97;16125929;19;130200;-43
2022/11/04 18:07:00;;;;;;;13.50;1.02;;;;;;;20.14;42.74;101155.91;16129142;19;129656;-42
2022/11/04 18:12:36;;;;;;;6.35;0.80;;;;;;;20.10;43.51;101166.69;16127684;19;130185;-34
2022/11/04 18:17:57;;;;;;;6.13;0.90;;;;;;;20.06;43.28;101181.31;16123421;19;129583;-43
2022/11/04 18:23:19;;;;;;;6.97;1.00;;;;;;;20.02;43.77;101180.94;16115445;19;133157;-44
2022/11/04 18:28:41;;;;;;;10.30;1.38;;;;;;;19.98;43.72;101182.53;16117505;19;129614;-44
2022/11/04 18:34:06;;;;;;;13.23;1.33;;;;;;;19.95;44.18;101186.63;16120153;19;129851;-43
2022/11/04 18:39:28;;;;;;;8.32;1.00;;;;;;;19.89;44.25;101182.09;16120739;19;129519;-44
2022/11/04 18:44:49;;;;;;;5.40;0.82;;;;;;;19.86;44.04;101187.28;16115616;19;130647;-44
2022/11/04 18:50:11;;;;;;;10.93;1.13;;;;;;;19.79;44.12;101193.00;16112388;19;130270;-44
2022/11/04 18:55:33;;;;;;;11.77;1.25;;;;;;;19.78;44.52;101196.88;16114522;19;130247;-42
2022/11/04 19:00:55;;;;;;;6.20;0.88;;;;;;;19.89;44.05;101198.75;16120013;19;129493;-43
2022/11/04 19:06:20;;;;;;;3.47;0.80;;;;;;;20.07;44.04;101216.31;16119255;19;129749;-43
2022/11/04 19:11:42;;;;;;;4.20;0.90;;;;;;;20.22;44.06;101213.81;16114158;19;129430;-44
2022/11/04 19:17:03;;;;;;;5.78;0.82;;;;;;;20.40;43.90;101225.81;16115225;19;129253;-42
2022/11/04 19:22:25;;;;;;;4.72;0.90;;;;;;;20.51;43.42;101236.00;16116214;19;129947;-43
2022/11/04 19:27:47;;;;;;;8.93;0.90;;;;;;;20.62;43.51;101250.06;16116526;19;130288;-43
2022/11/04 19:33:29;;;;;;;4.82;0.93;;;;;;;20.68;43.39;101260.16;16117582;19;131368;-43
2022/11/04 19:38:55;;;;;;;5.10;1.20;;;;;;;20.72;43.80;101272.47;16113514;19;129672;-43
2022/11/04 19:44:18;;;;;;;9.38;0.75;;;;;;;20.69;43.86;101272.97;16112752;19;129667;-43
2022/11/04 19:49:40;;;;;;;2.80;0.60;;;;;;;20.65;43.89;101272.63;16113358;19;130903;-43
2022/11/04 19:55:02;;;;;;;2.38;0.60;;;;;;;20.60;44.00;101276.19;16113982;19;129628;-42
2022/11/04 20:00:24;;;;;;;2.75;0.68;;;;;;;20.55;43.82;101284.44;16112808;19;130107;-42
2022/11/04 20:05:46;;;;;;;5.53;0.75;;;;;;;20.50;43.91;101286.25;16117159;19;129920;-42
2022/11/04 20:11:08;;;;;;;1.73;0.50;;;;;;;20.42;44.25;101285.59;16113934;19;129546;-43
2022/11/04 20:16:31;;;;;;;2.13;0.55;;;;;;;20.37;44.70;101293.00;16121834;19;129605;-43
2022/11/04 20:21:53;;;;;;;5.78;0.70;;;;;;;20.32;44.49;101304.00;16128261;19;129450;-42
2022/11/04 20:27:15;;;;;;;2.67;0.70;;;;;;;20.24;44.82;101306.09;16126280;19;129780;-43
2022/11/04 20:32:37;;;;;;;3.28;0.50;;;;;;;20.18;44.88;101315.44;16128363;19;129515;-43
2022/11/04 20:37:58;;;;;;;3.97;0.73;;;;;;;20.12;45.00;101328.34;16132527;19;130035;-43
2022/11/04 20:43:20;;;;;;;6.18;0.73;;;;;;;20.12;44.83;101338.63;16125259;19;130672;-41
2022/11/04 20:48:42;;;;;;;2.30;0.63;;;;;;;20.20;44.68;101342.94;16120178;19;130636;-43
2022/11/04 20:54:05;;;;;;;3.47;0.63;;;;;;;20.53;44.69;101358.03;16118284;19;130968;-43
2022/11/04 20:59:27;;;;;;;2.63;0.50;;;;;;;20.99;44.20;101364.44;16119460;19;129373;-42
2022/11/04 21:04:50;;;;;;;2.78;0.75;;;;;;;21.46;43.16;101374.41;16127048;19;129475;-41
2022/11/04 21:10:12;;;;;;;6.13;0.70;;;;;;;21.79;43.01;101394.94;16128980;19;129562;-38
2022/11/04 21:15:39;;;;;;;7.30;1.33;;;;;;;21.88;42.27;101397.31;16129811;19;129278;-40
2022/11/04 21:21:05;;;;;;;9.10;1.13;;;;;;;21.82;42.17;101391.66;16132932;19;129519;-38
2022/11/04 21:26:29;;;;;;;6.25;1.10;;;;;;;21.73;42.15;101403.47;16128238;19;129321;-41
2022/11/04 21:31:51;;;;;;;7.10;1.15;;;;;;;21.65;42.40;101416.75;16128158;19;130060;-39
2022/11/04 21:37:13;;;;;;;5.55;1.00;;;;;;;21.59;42.53;101426.16;16128758;19;128903;-38
2022/11/04 21:42:34;;;;;;;4.22;1.00;;;;;;;21.49;42.66;101418.47;16131082;19;129481;-38
2022/11/04 21:47:56;;;;;;;5.68;1.25;;;;;;;21.37;42.95;101429.63;16127821;19;129469;-39
2022/11/04 21:53:18;;;;;;;6.75;1.00;;;;;;;21.28;42.75;101433.13;16125979;19;130455;-36
2022/11/04 21:58:42;;;;;;;4.03;1.13;;;;;;;21.17;43.43;101427.34;16131134;19;129516;-37
2022/11/04 22:04:03;;;;;;;7.88;1.30;;;;;;;21.06;43.08;101431.03;16127040;19;130022;-35
2022/11/04 22:09:25;;;;;;;6.50;0.95;;;;;;;20.95;43.21;101437.53;16124132;19;129511;-40
2022/11/04 22:14:47;;;;;;;7.57;1.15;;;;;;;20.85;43.36;101443.75;16126413;19;129847;-42
2022/11/04 22:20:09;;;;;;;5.97;1.40;;;;;;;20.78;43.51;101446.69;16123590;19;129291;-34
2022/11/04 22:25:31;;;;;;;5.22;1.02;;;;;;;20.70;43.96;101442.34;16121840;19;130586;-34
2022/11/04 22:30:53;;;;;;;5.03;1.40;;;;;;;20.64;44.16;101448.88;16120640;19;130071;-39
2022/11/04 22:36:14;;;;;;;5.80;1.10;;;;;;;20.57;44.30;101446.22;16106745;19;131371;-37
2022/11/04 22:41:36;;;;;;;8.93;1.45;;;;;;;20.52;43.91;101457.25;16119024;19;129496;-41
2022/11/04 22:46:58;;;;;;;4.35;1.15;;;;;;;20.45;44.28;101465.75;16122170;19;129509;-38
2022/11/04 22:52:19;;;;;;;7.57;0.93;;;;;;;20.38;44.43;101461.41;16120282;19;129677;-38
2022/11/04 22:57:41;;;;;;;5.13;0.70;;;;;;;20.31;44.17;101455.97;16129367;19;130047;-41
2022/11/04 23:03:03;;;;;;;3.17;1.17;;;;;;;20.26;44.75;101453.09;16121245;19;129919;-41
2022/11/04 23:08:26;;;;;;;7.45;0.80;;;;;;;20.19;44.77;101457.94;16119142;19;129772;-39
2022/11/04 23:19:41;;;;;;;4.50;0.80;;;;;;;20.07;44.71;101456.03;16122332;19;130082;-37
2022/11/04 23:25:08;;;;;;;6.40;0.73;;;;;;;20.03;45.01;101453.97;16124550;19;129853;-38
2022/11/04 23:30:36;;;;;;;2.42;0.95;;;;;;;19.99;44.55;101465.56;16118521;19;129298;-39
2022/11/04 23:42:15;;;;;;;6.50;0.90;;;;;;;19.87;45.09;101473.03;16110541;19;130017;-39
